sensor_id;sensor_type;location;lat;lon;timestamp;temperature;humidity
48264;DHT22;34086;51.076;13.722;2022-09-09T00:00:17;15.10;99.90
48264;DHT22;34086;51.076;13.722;2022-09-09T00:01:43;15.10;99.90
48264;DHT22;34086;51.076;13.722;2022-09-09T00:03:54;15.10;99.90
48264;DHT22;34086;51.076;13.722;2022-09-09T00:06:09;15.10;99.90
48264;DHT22;34086;51.076;13.722;2022-09-09T00:07:47;15.00;99.90
48264;DHT22;34086;51.076;13.722;2022-09-09T00:10:14;15.00;99.90
48264;DHT22;34086;51.076;13.722;2022-09-09T00:11:26;15.00;99.90
48264;DHT22;34086;51.076;13.722;2022-09-09T00:12:54;15.00;99.90
48264;DHT22;34086;51.076;13.722;2022-09-09T00:14:00;15.00;99.90
48264;DHT22;34086;51.076;13.722;2022-09-09T00:15:11;15.00;99.90
48264;DHT22;34086;51.076;13.722;2022-09-09T00:16:21;15.00;99.90
48264;DHT22;34086;51.076;13.722;2022-09-09T00:17:56;15.00;99.90
48264;DHT22;34086;51.076;13.722;2022-09-09T00:19:12;15.00;99.90
48264;DHT22;34086;51.076;13.722;2022-09-09T00:21:35;15.00;99.90
48264;DHT22;34086;51.076;13.722;2022-09-09T00:22:40;14.90;99.90
48264;DHT22;34086;51.076;13.722;2022-09-09T00:23:54;14.90;99.90
48264;DHT22;34086;51.076;13.722;2022-09-09T00:25:11;14.90;99.90
48264;DHT22;34086;51.076;13.722;2022-09-09T00:26:32;14.90;99.90
48264;DHT22;34086;51.076;13.722;2022-09-09T00:27:45;14.90;99.90
48264;DHT22;34086;51.076;13.722;2022-09-09T00:29:37;14.90;99.90
48264;DHT22;34086;51.076;13.722;2022-09-09T00:31:23;14.80;99.90
48264;DHT22;34086;51.076;13.722;2022-09-09T00:32:29;14.80;99.90
48264;DHT22;34086;51.076;13.722;2022-09-09T00:33:31;14.80;99.90
48264;DHT22;34086;51.076;13.722;2022-09-09T00:34:33;14.80;99.90
48264;DHT22;34086;51.076;13.722;2022-09-09T00:35:44;14.80;99.90
48264;DHT22;34086;51.076;13.722;2022-09-09T00:36:45;14.80;99.90
48264;DHT22;34086;51.076;13.722;2022-09-09T00:37:51;14.80;99.90
48264;DHT22;34086;51.076;13.722;2022-09-09T00:38:57;14.70;99.90
48264;DHT22;34086;51.076;13.722;2022-09-09T00:40:02;14.80;99.90
48264;DHT22;34086;51.076;13.722;2022-09-09T00:41:44;14.70;99.90
48264;DHT22;34086;51.076;13.722;2022-09-09T00:43:38;14.70;99.90
48264;DHT22;34086;51.076;13.722;2022-09-09T00:44:31;14.70;99.90
48264;DHT22;34086;51.076;13.722;2022-09-09T00:48:10;14.60;99.90
48264;DHT22;34086;51.076;13.722;2022-09-09T00:51:02;14.60;99.90
48264;DHT22;34086;51.076;13.722;2022-09-09T00:52:39;14.60;99.90
48264;DHT22;34086;51.076;13.722;2022-09-09T00:54:11;14.60;99.90
48264;DHT22;34086;51.076;13.722;2022-09-09T00:56:37;14.60;99.90
48264;DHT22;34086;51.076;13.722;2022-09-09T00:57:42;14.60;99.90
48264;DHT22;34086;51.076;13.722;2022-09-09T00:59:46;14.60;99.90
48264;DHT22;34086;51.076;13.722;2022-09-09T01:00:30;14.60;99.90
48264;DHT22;34086;51.076;13.722;2022-09-09T01:01:33;14.60;99.90
48264;DHT22;34086;51.076;13.722;2022-09-09T01:03:55;14.70;99.90
48264;DHT22;34086;51.076;13.722;2022-09-09T01:05:05;14.60;99.90
48264;DHT22;34086;51.076;13.722;2022-09-09T01:06:31;14.70;99.90
48264;DHT22;34086;51.076;13.722;2022-09-09T01:07:32;14.70;99.90
48264;DHT22;34086;51.076;13.722;2022-09-09T01:09:55;14.60;99.90
48264;DHT22;34086;51.076;13.722;2022-09-09T01:10:56;14.60;99.90
48264;DHT22;34086;51.076;13.722;2022-09-09T01:13:32;14.60;99.90
48264;DHT22;34086;51.076;13.722;2022-09-09T01:14:48;14.60;99.90
48264;DHT22;34086;51.076;13.722;2022-09-09T01:15:53;14.60;99.90
48264;DHT22;34086;51.076;13.722;2022-09-09T01:16:58;14.60;99.90
48264;DHT22;34086;51.076;13.722;2022-09-09T01:18:11;14.60;99.90
48264;DHT22;34086;51.076;13.722;2022-09-09T01:19:27;14.60;99.90
48264;DHT22;34086;51.076;13.722;2022-09-09T01:20:57;14.60;99.90
48264;DHT22;34086;51.076;13.722;2022-09-09T01:26:44;14.50;99.90
48264;DHT22;34086;51.076;13.722;2022-09-09T01:28:22;14.50;99.90
48264;DHT22;34086;51.076;13.722;2022-09-09T01:29:27;14.50;99.90
48264;DHT22;34086;51.076;13.722;2022-09-09T01:30:28;14.40;99.90
48264;DHT22;34086;51.076;13.722;2022-09-09T01:31:35;14.40;99.90
48264;DHT22;34086;51.076;13.722;2022-09-09T01:32:41;14.40;99.90
48264;DHT22;34086;51.076;13.722;2022-09-09T01:33:43;14.40;99.90
48264;DHT22;34086;51.076;13.722;2022-09-09T01:34:44;14.50;99.90
48264;DHT22;34086;51.076;13.722;2022-09-09T01:35:52;14.40;99.90
48264;DHT22;34086;51.076;13.722;2022-09-09T01:37:04;14.50;99.90
48264;DHT22;34086;51.076;13.722;2022-09-09T01:38:06;14.50;99.90
48264;DHT22;34086;51.076;13.722;2022-09-09T01:39:08;14.50;99.90
48264;DHT22;34086;51.076;13.722;2022-09-09T01:40:10;14.50;99.90
48264;DHT22;34086;51.076;13.722;2022-09-09T01:41:12;14.50;99.90
48264;DHT22;34086;51.076;13.722;2022-09-09T01:42:28;14.50;99.90
48264;DHT22;34086;51.076;13.722;2022-09-09T01:43:29;14.50;99.90
48264;DHT22;34086;51.076;13.722;2022-09-09T01:44:31;14.50;99.90
48264;DHT22;34086;51.076;13.722;2022-09-09T01:47:47;14.50;99.90
48264;DHT22;34086;51.076;13.722;2022-09-09T01:48:56;14.50;99.90
48264;DHT22;34086;51.076;13.722;2022-09-09T01:49:58;14.40;99.90
48264;DHT22;34086;51.076;13.722;2022-09-09T01:51:02;14.40;99.90
48264;DHT22;34086;51.076;13.722;2022-09-09T01:52:03;14.40;99.90
48264;DHT22;34086;51.076;13.722;2022-09-09T01:53:11;14.40;99.90
48264;DHT22;34086;51.076;13.722;2022-09-09T01:54:13;14.40;99.90
48264;DHT22;34086;51.076;13.722;2022-09-09T01:55:14;14.40;99.90
48264;DHT22;34086;51.076;13.722;2022-09-09T01:56:40;14.40;99.90
48264;DHT22;34086;51.076;13.722;2022-09-09T01:57:50;14.40;99.90
48264;DHT22;34086;51.076;13.722;2022-09-09T02:00:04;14.40;99.90
48264;DHT22;34086;51.076;13.722;2022-09-09T02:00:35;14.40;99.90
48264;DHT22;34086;51.076;13.722;2022-09-09T02:07:35;14.30;99.90
48264;DHT22;34086;51.076;13.722;2022-09-09T02:08:50;14.30;99.90
48264;DHT22;34086;51.076;13.722;2022-09-09T02:11:16;14.20;99.90
48264;DHT22;34086;51.076;13.722;2022-09-09T02:12:44;14.30;99.90
48264;DHT22;34086;51.076;13.722;2022-09-09T02:13:48;14.30;99.90
48264;DHT22;34086;51.076;13.722;2022-09-09T02:14:55;14.30;99.90
48264;DHT22;34086;51.076;13.722;2022-09-09T02:17:10;14.30;99.90
48264;DHT22;34086;51.076;13.722;2022-09-09T02:19:44;14.20;99.90
48264;DHT22;34086;51.076;13.722;2022-09-09T02:20:33;14.20;99.90
48264;DHT22;34086;51.076;13.722;2022-09-09T02:21:37;14.20;99.90
48264;DHT22;34086;51.076;13.722;2022-09-09T02:22:43;14.20;99.90
48264;DHT22;34086;51.076;13.722;2022-09-09T02:23:47;14.20;99.90
48264;DHT22;34086;51.076;13.722;2022-09-09T02:24:53;14.20;99.90
48264;DHT22;34086;51.076;13.722;2022-09-09T02:26:00;14.10;99.90
48264;DHT22;34086;51.076;13.722;2022-09-09T02:27:07;14.10;99.90
48264;DHT22;34086;51.076;13.722;2022-09-09T02:28:10;14.10;99.90
48264;DHT22;34086;51.076;13.722;2022-09-09T02:29:32;14.10;99.90
48264;DHT22;34086;51.076;13.722;2022-09-09T02:30:34;14.10;99.90
48264;DHT22;34086;51.076;13.722;2022-09-09T02:31:39;14.10;99.90
48264;DHT22;34086;51.076;13.722;2022-09-09T02:32:48;14.10;99.90
48264;DHT22;34086;51.076;13.722;2022-09-09T02:33:55;14.10;99.90
48264;DHT22;34086;51.076;13.722;2022-09-09T02:35:02;14.00;99.90
48264;DHT22;34086;51.076;13.722;2022-09-09T02:36:07;14.00;99.90
48264;DHT22;34086;51.076;13.722;2022-09-09T02:37:10;14.00;99.90
48264;DHT22;34086;51.076;13.722;2022-09-09T02:38:15;14.00;99.90
48264;DHT22;34086;51.076;13.722;2022-09-09T02:39:28;14.10;99.90
48264;DHT22;34086;51.076;13.722;2022-09-09T02:40:28;14.10;99.90
48264;DHT22;34086;51.076;13.722;2022-09-09T02:41:37;14.10;99.90
48264;DHT22;34086;51.076;13.722;2022-09-09T02:42:43;14.10;99.90
48264;DHT22;34086;51.076;13.722;2022-09-09T02:43:54;14.10;99.90
48264;DHT22;34086;51.076;13.722;2022-09-09T02:44:55;14.10;99.90
48264;DHT22;34086;51.076;13.722;2022-09-09T02:51:46;14.00;99.90
48264;DHT22;34086;51.076;13.722;2022-09-09T02:52:59;14.00;99.90
48264;DHT22;34086;51.076;13.722;2022-09-09T02:54:20;13.90;99.90
48264;DHT22;34086;51.076;13.722;2022-09-09T02:56:51;13.90;99.90
48264;DHT22;34086;51.076;13.722;2022-09-09T02:57:55;13.90;99.90
48264;DHT22;34086;51.076;13.722;2022-09-09T02:58:57;13.90;99.90
48264;DHT22;34086;51.076;13.722;2022-09-09T02:59:59;13.90;99.90
48264;DHT22;34086;51.076;13.722;2022-09-09T03:01:01;13.90;99.90
48264;DHT22;34086;51.076;13.722;2022-09-09T03:02:04;13.90;99.90
48264;DHT22;34086;51.076;13.722;2022-09-09T03:03:07;13.80;99.90
48264;DHT22;34086;51.076;13.722;2022-09-09T03:04:09;13.80;99.90
48264;DHT22;34086;51.076;13.722;2022-09-09T03:05:10;13.80;99.90
48264;DHT22;34086;51.076;13.722;2022-09-09T03:06:11;13.80;99.90
48264;DHT22;34086;51.076;13.722;2022-09-09T03:07:13;13.80;99.90
48264;DHT22;34086;51.076;13.722;2022-09-09T03:08:16;13.80;99.90
48264;DHT22;34086;51.076;13.722;2022-09-09T03:09:18;13.80;99.90
48264;DHT22;34086;51.076;13.722;2022-09-09T03:10:18;13.80;99.90
48264;DHT22;34086;51.076;13.722;2022-09-09T03:11:19;13.80;99.90
48264;DHT22;34086;51.076;13.722;2022-09-09T03:12:20;13.80;99.90
48264;DHT22;34086;51.076;13.722;2022-09-09T03:13:21;13.80;99.90
48264;DHT22;34086;51.076;13.722;2022-09-09T03:14:22;13.80;99.90
48264;DHT22;34086;51.076;13.722;2022-09-09T03:15:25;13.80;99.90
48264;DHT22;34086;51.076;13.722;2022-09-09T03:16:30;13.80;99.90
48264;DHT22;34086;51.076;13.722;2022-09-09T03:17:31;13.80;99.90
48264;DHT22;34086;51.076;13.722;2022-09-09T03:18:32;13.80;99.90
48264;DHT22;34086;51.076;13.722;2022-09-09T03:19:32;13.80;99.90
48264;DHT22;34086;51.076;13.722;2022-09-09T03:20:34;13.80;99.90
48264;DHT22;34086;51.076;13.722;2022-09-09T03:21:35;13.80;99.90
48264;DHT22;34086;51.076;13.722;2022-09-09T03:22:39;13.80;99.90
48264;DHT22;34086;51.076;13.722;2022-09-09T03:23:41;13.80;99.90
48264;DHT22;34086;51.076;13.722;2022-09-09T03:24:42;13.80;99.90
48264;DHT22;34086;51.076;13.722;2022-09-09T03:25:49;13.80;99.90
48264;DHT22;34086;51.076;13.722;2022-09-09T03:26:53;13.80;99.90
48264;DHT22;34086;51.076;13.722;2022-09-09T03:27:57;13.70;99.90
48264;DHT22;34086;51.076;13.722;2022-09-09T03:28:58;13.70;99.90
48264;DHT22;34086;51.076;13.722;2022-09-09T03:30:00;13.70;99.90
48264;DHT22;34086;51.076;13.722;2022-09-09T03:31:05;13.70;99.90
48264;DHT22;34086;51.076;13.722;2022-09-09T03:32:11;13.70;99.90
48264;DHT22;34086;51.076;13.722;2022-09-09T03:33:13;13.70;99.90
48264;DHT22;34086;51.076;13.722;2022-09-09T03:34:15;13.70;99.90
48264;DHT22;34086;51.076;13.722;2022-09-09T03:35:16;13.70;99.90
48264;DHT22;34086;51.076;13.722;2022-09-09T03:36:17;13.70;99.90
48264;DHT22;34086;51.076;13.722;2022-09-09T03:37:20;13.70;99.90
48264;DHT22;34086;51.076;13.722;2022-09-09T03:38:24;13.60;99.90
48264;DHT22;34086;51.076;13.722;2022-09-09T03:39:25;13.60;99.90
48264;DHT22;34086;51.076;13.722;2022-09-09T03:40:25;13.70;99.90
48264;DHT22;34086;51.076;13.722;2022-09-09T03:41:26;13.60;99.90
48264;DHT22;34086;51.076;13.722;2022-09-09T03:42:27;13.60;99.90
48264;DHT22;34086;51.076;13.722;2022-09-09T03:43:29;13.60;99.90
48264;DHT22;34086;51.076;13.722;2022-09-09T03:44:30;13.60;99.90
48264;DHT22;34086;51.076;13.722;2022-09-09T03:45:31;13.60;99.90
48264;DHT22;34086;51.076;13.722;2022-09-09T03:46:32;13.60;99.90
48264;DHT22;34086;51.076;13.722;2022-09-09T03:47:34;13.60;99.90
48264;DHT22;34086;51.076;13.722;2022-09-09T03:48:39;13.60;99.90
48264;DHT22;34086;51.076;13.722;2022-09-09T03:49:40;13.60;99.90
48264;DHT22;34086;51.076;13.722;2022-09-09T03:50:48;13.60;99.90
48264;DHT22;34086;51.076;13.722;2022-09-09T03:51:49;13.60;99.90
48264;DHT22;34086;51.076;13.722;2022-09-09T03:52:49;13.60;99.90
48264;DHT22;34086;51.076;13.722;2022-09-09T03:53:55;13.60;99.90
48264;DHT22;34086;51.076;13.722;2022-09-09T03:54:57;13.60;99.90
48264;DHT22;34086;51.076;13.722;2022-09-09T03:55:58;13.60;99.90
48264;DHT22;34086;51.076;13.722;2022-09-09T03:57:01;13.60;99.90
48264;DHT22;34086;51.076;13.722;2022-09-09T03:58:02;13.60;99.90
48264;DHT22;34086;51.076;13.722;2022-09-09T03:59:03;13.60;99.90
48264;DHT22;34086;51.076;13.722;2022-09-09T04:00:06;13.60;99.90
48264;DHT22;34086;51.076;13.722;2022-09-09T04:01:16;13.60;99.90
48264;DHT22;34086;51.076;13.722;2022-09-09T04:02:18;13.50;99.90
48264;DHT22;34086;51.076;13.722;2022-09-09T04:03:19;13.50;99.90
48264;DHT22;34086;51.076;13.722;2022-09-09T04:04:20;13.50;99.90
48264;DHT22;34086;51.076;13.722;2022-09-09T04:05:20;13.50;99.90
48264;DHT22;34086;51.076;13.722;2022-09-09T04:06:22;13.50;99.90
48264;DHT22;34086;51.076;13.722;2022-09-09T04:07:23;13.50;99.90
48264;DHT22;34086;51.076;13.722;2022-09-09T04:08:24;13.50;99.90
48264;DHT22;34086;51.076;13.722;2022-09-09T04:09:25;13.50;99.90
48264;DHT22;34086;51.076;13.722;2022-09-09T04:10:26;13.50;99.90
48264;DHT22;34086;51.076;13.722;2022-09-09T04:11:29;13.50;99.90
48264;DHT22;34086;51.076;13.722;2022-09-09T04:12:32;13.50;99.90
48264;DHT22;34086;51.076;13.722;2022-09-09T04:13:35;13.50;99.90
48264;DHT22;34086;51.076;13.722;2022-09-09T04:14:36;13.50;99.90
48264;DHT22;34086;51.076;13.722;2022-09-09T04:15:39;13.50;99.90
48264;DHT22;34086;51.076;13.722;2022-09-09T04:16:41;13.50;99.90
48264;DHT22;34086;51.076;13.722;2022-09-09T04:17:46;13.50;99.90
48264;DHT22;34086;51.076;13.722;2022-09-09T04:18:47;13.50;99.90
48264;DHT22;34086;51.076;13.722;2022-09-09T04:19:50;13.50;99.90
48264;DHT22;34086;51.076;13.722;2022-09-09T04:20:52;13.50;99.90
48264;DHT22;34086;51.076;13.722;2022-09-09T04:21:56;13.50;99.90
48264;DHT22;34086;51.076;13.722;2022-09-09T04:22:57;13.50;99.90
48264;DHT22;34086;51.076;13.722;2022-09-09T04:23:58;13.50;99.90
48264;DHT22;34086;51.076;13.722;2022-09-09T04:25:00;13.60;99.90
48264;DHT22;34086;51.076;13.722;2022-09-09T04:26:02;13.60;99.90
48264;DHT22;34086;51.076;13.722;2022-09-09T04:27:05;13.60;99.90
48264;DHT22;34086;51.076;13.722;2022-09-09T04:28:09;13.60;99.90
48264;DHT22;34086;51.076;13.722;2022-09-09T04:29:09;13.60;99.90
48264;DHT22;34086;51.076;13.722;2022-09-09T04:30:11;13.60;99.90
48264;DHT22;34086;51.076;13.722;2022-09-09T04:31:18;13.60;99.90
48264;DHT22;34086;51.076;13.722;2022-09-09T04:32:21;13.60;99.90
48264;DHT22;34086;51.076;13.722;2022-09-09T04:33:25;13.60;99.90
48264;DHT22;34086;51.076;13.722;2022-09-09T04:34:28;13.60;99.90
48264;DHT22;34086;51.076;13.722;2022-09-09T04:35:30;13.60;99.90
48264;DHT22;34086;51.076;13.722;2022-09-09T04:36:32;13.60;99.90
48264;DHT22;34086;51.076;13.722;2022-09-09T04:37:35;13.60;99.90
48264;DHT22;34086;51.076;13.722;2022-09-09T04:38:36;13.60;99.90
48264;DHT22;34086;51.076;13.722;2022-09-09T04:39:37;13.70;99.90
48264;DHT22;34086;51.076;13.722;2022-09-09T04:40:38;13.60;99.90
48264;DHT22;34086;51.076;13.722;2022-09-09T04:41:42;13.70;99.90
48264;DHT22;34086;51.076;13.722;2022-09-09T04:42:44;13.70;99.90
48264;DHT22;34086;51.076;13.722;2022-09-09T04:43:47;13.70;99.90
48264;DHT22;34086;51.076;13.722;2022-09-09T04:45:07;13.70;99.90
48264;DHT22;34086;51.076;13.722;2022-09-09T04:46:11;13.70;99.90
48264;DHT22;34086;51.076;13.722;2022-09-09T04:47:12;13.80;99.90
48264;DHT22;34086;51.076;13.722;2022-09-09T04:48:14;13.80;99.90
48264;DHT22;34086;51.076;13.722;2022-09-09T04:49:15;13.80;99.90
48264;DHT22;34086;51.076;13.722;2022-09-09T04:50:17;13.80;99.90
48264;DHT22;34086;51.076;13.722;2022-09-09T04:51:21;13.80;99.90
48264;DHT22;34086;51.076;13.722;2022-09-09T04:52:23;13.80;99.90
48264;DHT22;34086;51.076;13.722;2022-09-09T04:53:24;13.90;99.90
48264;DHT22;34086;51.076;13.722;2022-09-09T04:54:26;13.90;99.90
48264;DHT22;34086;51.076;13.722;2022-09-09T04:55:28;13.90;99.90
48264;DHT22;34086;51.076;13.722;2022-09-09T04:56:29;13.90;99.90
48264;DHT22;34086;51.076;13.722;2022-09-09T04:57:32;13.90;99.90
48264;DHT22;34086;51.076;13.722;2022-09-09T04:58:33;13.90;99.90
48264;DHT22;34086;51.076;13.722;2022-09-09T04:59:34;13.90;99.90
48264;DHT22;34086;51.076;13.722;2022-09-09T05:00:37;13.90;99.90
48264;DHT22;34086;51.076;13.722;2022-09-09T05:01:40;14.00;99.90
48264;DHT22;34086;51.076;13.722;2022-09-09T05:02:41;14.00;99.90
48264;DHT22;34086;51.076;13.722;2022-09-09T05:03:43;14.00;99.90
48264;DHT22;34086;51.076;13.722;2022-09-09T05:04:46;14.00;99.90
48264;DHT22;34086;51.076;13.722;2022-09-09T05:05:48;14.00;99.90
48264;DHT22;34086;51.076;13.722;2022-09-09T05:06:49;14.10;99.90
48264;DHT22;34086;51.076;13.722;2022-09-09T05:07:50;14.20;99.90
48264;DHT22;34086;51.076;13.722;2022-09-09T05:08:51;14.20;99.90
48264;DHT22;34086;51.076;13.722;2022-09-09T05:09:56;14.30;99.90
48264;DHT22;34086;51.076;13.722;2022-09-09T05:10:57;14.40;99.90
48264;DHT22;34086;51.076;13.722;2022-09-09T05:11:59;14.60;99.90
48264;DHT22;34086;51.076;13.722;2022-09-09T05:13:05;14.90;99.90
48264;DHT22;34086;51.076;13.722;2022-09-09T05:14:07;15.20;99.90
48264;DHT22;34086;51.076;13.722;2022-09-09T05:15:09;15.50;99.90
48264;DHT22;34086;51.076;13.722;2022-09-09T05:16:11;15.70;99.90
48264;DHT22;34086;51.076;13.722;2022-09-09T05:17:12;15.90;99.90
48264;DHT22;34086;51.076;13.722;2022-09-09T05:18:13;16.20;99.90
48264;DHT22;34086;51.076;13.722;2022-09-09T05:19:14;16.30;99.90
48264;DHT22;34086;51.076;13.722;2022-09-09T05:20:19;16.50;99.90
48264;DHT22;34086;51.076;13.722;2022-09-09T05:21:21;16.60;99.90
48264;DHT22;34086;51.076;13.722;2022-09-09T05:22:23;16.60;99.90
48264;DHT22;34086;51.076;13.722;2022-09-09T05:23:26;16.50;99.90
48264;DHT22;34086;51.076;13.722;2022-09-09T05:24:27;16.40;99.90
48264;DHT22;34086;51.076;13.722;2022-09-09T05:25:30;16.20;99.90
48264;DHT22;34086;51.076;13.722;2022-09-09T05:26:31;16.10;99.90
48264;DHT22;34086;51.076;13.722;2022-09-09T05:27:35;16.00;99.90
48264;DHT22;34086;51.076;13.722;2022-09-09T05:28:36;15.90;99.90
48264;DHT22;34086;51.076;13.722;2022-09-09T05:29:38;15.70;99.90
48264;DHT22;34086;51.076;13.722;2022-09-09T05:30:40;15.60;99.90
48264;DHT22;34086;51.076;13.722;2022-09-09T05:31:41;15.60;99.90
48264;DHT22;34086;51.076;13.722;2022-09-09T05:32:46;15.50;99.90
48264;DHT22;34086;51.076;13.722;2022-09-09T05:33:48;15.40;99.90
48264;DHT22;34086;51.076;13.722;2022-09-09T05:34:49;15.40;99.90
48264;DHT22;34086;51.076;13.722;2022-09-09T05:36:04;15.30;99.90
48264;DHT22;34086;51.076;13.722;2022-09-09T05:37:06;15.40;99.90
48264;DHT22;34086;51.076;13.722;2022-09-09T05:38:08;15.40;99.90
48264;DHT22;34086;51.076;13.722;2022-09-09T05:39:08;15.30;99.90
48264;DHT22;34086;51.076;13.722;2022-09-09T05:40:09;15.40;99.90
48264;DHT22;34086;51.076;13.722;2022-09-09T05:41:11;15.40;99.90
48264;DHT22;34086;51.076;13.722;2022-09-09T05:42:12;15.50;99.90
48264;DHT22;34086;51.076;13.722;2022-09-09T05:43:13;15.40;99.90
48264;DHT22;34086;51.076;13.722;2022-09-09T05:44:14;15.40;99.90
48264;DHT22;34086;51.076;13.722;2022-09-09T05:45:23;15.50;99.90
48264;DHT22;34086;51.076;13.722;2022-09-09T05:46:25;15.50;99.90
48264;DHT22;34086;51.076;13.722;2022-09-09T05:47:27;15.50;99.90
48264;DHT22;34086;51.076;13.722;2022-09-09T05:48:32;15.50;99.90
48264;DHT22;34086;51.076;13.722;2022-09-09T05:49:34;15.50;99.90
48264;DHT22;34086;51.076;13.722;2022-09-09T05:50:35;15.50;99.90
48264;DHT22;34086;51.076;13.722;2022-09-09T05:51:36;15.60;99.90
48264;DHT22;34086;51.076;13.722;2022-09-09T05:52:42;15.60;99.90
48264;DHT22;34086;51.076;13.722;2022-09-09T05:53:45;15.60;99.90
48264;DHT22;34086;51.076;13.722;2022-09-09T05:54:47;15.60;99.90
48264;DHT22;34086;51.076;13.722;2022-09-09T05:55:47;15.60;99.90
48264;DHT22;34086;51.076;13.722;2022-09-09T05:56:48;15.60;99.90
48264;DHT22;34086;51.076;13.722;2022-09-09T05:57:51;15.60;99.90
48264;DHT22;34086;51.076;13.722;2022-09-09T05:58:53;15.70;99.90
48264;DHT22;34086;51.076;13.722;2022-09-09T05:59:55;15.60;99.90
48264;DHT22;34086;51.076;13.722;2022-09-09T06:02:08;15.70;99.90
48264;DHT22;34086;51.076;13.722;2022-09-09T06:03:11;15.70;99.90
48264;DHT22;34086;51.076;13.722;2022-09-09T06:04:12;15.70;99.90
48264;DHT22;34086;51.076;13.722;2022-09-09T06:05:14;15.70;99.90
48264;DHT22;34086;51.076;13.722;2022-09-09T06:06:18;15.70;99.90
48264;DHT22;34086;51.076;13.722;2022-09-09T06:07:21;15.70;99.90
48264;DHT22;34086;51.076;13.722;2022-09-09T06:08:22;15.80;99.90
48264;DHT22;34086;51.076;13.722;2022-09-09T06:09:22;15.80;99.90
48264;DHT22;34086;51.076;13.722;2022-09-09T06:10:24;15.80;99.90
48264;DHT22;34086;51.076;13.722;2022-09-09T06:11:28;15.80;99.90
48264;DHT22;34086;51.076;13.722;2022-09-09T06:12:33;15.80;99.90
48264;DHT22;34086;51.076;13.722;2022-09-09T06:13:36;15.90;99.90
48264;DHT22;34086;51.076;13.722;2022-09-09T06:14:39;15.90;99.90
48264;DHT22;34086;51.076;13.722;2022-09-09T06:15:52;16.00;99.90
48264;DHT22;34086;51.076;13.722;2022-09-09T06:16:53;16.00;99.90
48264;DHT22;34086;51.076;13.722;2022-09-09T06:17:57;16.00;99.90
48264;DHT22;34086;51.076;13.722;2022-09-09T06:18:58;16.00;99.90
48264;DHT22;34086;51.076;13.722;2022-09-09T06:20:01;16.00;99.90
48264;DHT22;34086;51.076;13.722;2022-09-09T06:21:07;16.10;99.90
48264;DHT22;34086;51.076;13.722;2022-09-09T06:22:09;16.00;99.90
48264;DHT22;34086;51.076;13.722;2022-09-09T06:23:13;16.10;99.90
48264;DHT22;34086;51.076;13.722;2022-09-09T06:24:14;16.10;99.90
48264;DHT22;34086;51.076;13.722;2022-09-09T06:25:18;16.10;99.90
48264;DHT22;34086;51.076;13.722;2022-09-09T06:26:21;16.10;99.90
48264;DHT22;34086;51.076;13.722;2022-09-09T06:27:23;16.10;99.90
48264;DHT22;34086;51.076;13.722;2022-09-09T06:28:24;16.10;99.90
48264;DHT22;34086;51.076;13.722;2022-09-09T06:29:25;16.10;99.90
48264;DHT22;34086;51.076;13.722;2022-09-09T06:30:27;16.10;99.90
48264;DHT22;34086;51.076;13.722;2022-09-09T06:31:28;16.10;99.90
48264;DHT22;34086;51.076;13.722;2022-09-09T06:32:38;16.10;99.90
48264;DHT22;34086;51.076;13.722;2022-09-09T06:33:41;16.10;99.90
48264;DHT22;34086;51.076;13.722;2022-09-09T06:34:42;16.10;99.90
48264;DHT22;34086;51.076;13.722;2022-09-09T06:35:51;16.20;99.90
48264;DHT22;34086;51.076;13.722;2022-09-09T06:36:54;16.10;99.90
48264;DHT22;34086;51.076;13.722;2022-09-09T06:37:58;16.10;99.90
48264;DHT22;34086;51.076;13.722;2022-09-09T06:39:02;16.20;99.90
48264;DHT22;34086;51.076;13.722;2022-09-09T06:40:05;16.10;99.90
48264;DHT22;34086;51.076;13.722;2022-09-09T06:41:06;16.20;99.90
48264;DHT22;34086;51.076;13.722;2022-09-09T06:42:08;16.20;99.90
48264;DHT22;34086;51.076;13.722;2022-09-09T06:43:28;16.20;99.90
48264;DHT22;34086;51.076;13.722;2022-09-09T06:44:29;16.20;99.90
48264;DHT22;34086;51.076;13.722;2022-09-09T06:45:32;16.20;99.90
48264;DHT22;34086;51.076;13.722;2022-09-09T06:46:33;16.20;99.90
48264;DHT22;34086;51.076;13.722;2022-09-09T06:47:35;16.30;99.90
48264;DHT22;34086;51.076;13.722;2022-09-09T06:48:36;16.30;99.90
48264;DHT22;34086;51.076;13.722;2022-09-09T06:49:37;16.40;99.90
48264;DHT22;34086;51.076;13.722;2022-09-09T06:50:41;16.40;99.90
48264;DHT22;34086;51.076;13.722;2022-09-09T06:51:42;16.50;99.90
48264;DHT22;34086;51.076;13.722;2022-09-09T06:52:47;16.60;99.90
48264;DHT22;34086;51.076;13.722;2022-09-09T06:53:52;16.60;99.90
48264;DHT22;34086;51.076;13.722;2022-09-09T06:54:54;16.70;99.90
48264;DHT22;34086;51.076;13.722;2022-09-09T06:55:56;16.80;99.90
48264;DHT22;34086;51.076;13.722;2022-09-09T06:56:57;16.80;99.90
48264;DHT22;34086;51.076;13.722;2022-09-09T06:58:02;16.90;99.90
48264;DHT22;34086;51.076;13.722;2022-09-09T06:59:04;17.00;99.90
48264;DHT22;34086;51.076;13.722;2022-09-09T07:00:09;17.00;99.90
48264;DHT22;34086;51.076;13.722;2022-09-09T07:01:13;17.10;99.90
48264;DHT22;34086;51.076;13.722;2022-09-09T07:02:14;17.20;99.90
48264;DHT22;34086;51.076;13.722;2022-09-09T07:03:15;17.20;99.90
48264;DHT22;34086;51.076;13.722;2022-09-09T07:04:16;17.20;99.90
48264;DHT22;34086;51.076;13.722;2022-09-09T07:05:18;17.30;99.90
48264;DHT22;34086;51.076;13.722;2022-09-09T07:06:25;17.30;99.90
48264;DHT22;34086;51.076;13.722;2022-09-09T07:07:29;17.40;99.90
48264;DHT22;34086;51.076;13.722;2022-09-09T07:08:31;17.40;99.90
48264;DHT22;34086;51.076;13.722;2022-09-09T07:09:32;17.50;99.90
48264;DHT22;34086;51.076;13.722;2022-09-09T07:10:33;17.50;99.90
48264;DHT22;34086;51.076;13.722;2022-09-09T07:11:43;17.60;99.90
48264;DHT22;34086;51.076;13.722;2022-09-09T07:12:50;17.50;99.90
48264;DHT22;34086;51.076;13.722;2022-09-09T07:13:52;17.50;99.90
48264;DHT22;34086;51.076;13.722;2022-09-09T07:14:58;17.50;99.90
48264;DHT22;34086;51.076;13.722;2022-09-09T07:16:07;17.60;99.90
48264;DHT22;34086;51.076;13.722;2022-09-09T07:17:08;17.60;99.90
48264;DHT22;34086;51.076;13.722;2022-09-09T07:18:12;17.70;99.90
48264;DHT22;34086;51.076;13.722;2022-09-09T07:19:13;17.70;99.90
48264;DHT22;34086;51.076;13.722;2022-09-09T07:20:15;17.70;99.90
48264;DHT22;34086;51.076;13.722;2022-09-09T07:21:21;17.70;99.90
48264;DHT22;34086;51.076;13.722;2022-09-09T07:22:59;17.70;99.90
48264;DHT22;34086;51.076;13.722;2022-09-09T07:24:04;17.80;99.90
48264;DHT22;34086;51.076;13.722;2022-09-09T07:25:11;17.80;99.90